Time;durP1;ratioP1;P1;durP2;ratioP2;P2;SDS_P1;SDS_P2;PMS_P1;PMS_P2;Temp;Humidity;BMP_temperature;BMP_pressure;BME280_temperature;BME280_humidity;BME280_pressure;Samples;Min_cycle;Max_cycle;Signal;HPM_P1;HPM_P2
2024/03/29 00:00:17;;;;;;;0.77;0.30;;;;;;;7.52;65.63;96707.34;6299818;28;20210;-56
2024/03/29 00:03:18;;;;;;;0.17;0.17;;;;;;;7.65;60.09;96699.03;6281065;28;20297;-56
2024/03/29 00:06:20;;;;;;;0.20;0.20;;;;;;;7.57;62.89;96707.41;6311780;28;20592;-54
2024/03/29 00:09:21;;;;;;;0.90;0.60;;;;;;;7.34;64.25;96700.50;6289745;28;20195;-55
2024/03/29 00:12:22;;;;;;;1.80;0.53;;;;;;;7.06;65.59;96711.22;6293828;28;20197;-52
2024/03/29 00:15:24;;;;;;;1.07;0.70;;;;;;;6.91;68.99;96711.81;6293688;28;20552;-53
2024/03/29 00:18:25;;;;;;;0.60;0.50;;;;;;;6.24;72.83;96724.97;6290533;28;20317;-52
2024/03/29 00:21:26;;;;;;;0.67;0.57;;;;;;;5.87;74.71;96728.78;6297155;28;20201;-54
2024/03/29 00:24:27;;;;;;;0.50;0.30;;;;;;;5.51;77.07;96729.88;6297184;28;20188;-53
2024/03/29 00:27:29;;;;;;;1.17;0.30;;;;;;;5.63;76.42;96729.88;6290435;28;20196;-53
2024/03/29 00:30:30;;;;;;;0.40;0.30;;;;;;;5.20;78.76;96733.72;6302073;28;20218;-54
2024/03/29 00:33:31;;;;;;;1.00;0.40;;;;;;;5.34;77.02;96740.38;6274854;28;20201;-51
2024/03/29 00:36:33;;;;;;;0.60;0.50;;;;;;;5.15;78.27;96742.31;6299960;28;20195;-53
2024/03/29 00:39:34;;;;;;;0.33;0.33;;;;;;;4.70;81.95;96733.38;6298334;28;20200;-53
2024/03/29 00:42:35;;;;;;;1.10;0.43;;;;;;;4.40;84.33;96728.94;6290564;28;20231;-53
2024/03/29 00:45:36;;;;;;;0.60;0.60;;;;;;;4.02;86.24;96731.91;6290410;28;20204;-55
2024/03/29 00:48:37;;;;;;;2.37;1.73;;;;;;;3.91;88.32;96744.03;6296868;28;20190;-53
2024/03/29 00:51:39;;;;;;;1.77;1.40;;;;;;;3.78;89.04;96741.53;6298566;28;20204;-54
2024/03/29 00:54:40;;;;;;;2.80;1.80;;;;;;;3.69;89.61;96740.22;6294338;28;20650;-55
2024/03/29 00:57:41;;;;;;;1.87;1.40;;;;;;;3.72;89.51;96739.81;6304291;28;20194;-56
2024/03/29 01:00:42;;;;;;;12.77;7.23;;;;;;;3.55;90.86;96743.03;6293663;28;20217;-55
2024/03/29 01:03:43;;;;;;;13.60;7.43;;;;;;;3.68;89.94;96741.25;6293723;28;20559;-53
2024/03/29 01:06:44;;;;;;;7.60;4.13;;;;;;;3.71;91.01;96756.63;6289838;28;20243;-53
2024/03/29 01:09:45;;;;;;;6.57;2.80;;;;;;;3.34;94.50;96761.88;6294491;28;20186;-54
2024/03/29 01:12:46;;;;;;;4.53;2.50;;;;;;;3.29;94.18;96772.25;6302546;28;20199;-54
2024/03/29 01:15:48;;;;;;;1.37;1.17;;;;;;;3.03;96.86;96786.47;6298368;28;20213;-53
2024/03/29 01:18:49;;;;;;;1.33;0.60;;;;;;;2.98;96.65;96781.84;6290101;28;20236;-55
2024/03/29 01:21:50;;;;;;;0.47;0.23;;;;;;;2.92;97.44;96784.56;6274458;28;20662;-52
2024/03/29 01:24:52;;;;;;;0.53;0.40;;;;;;;2.83;97.93;96790.06;6286174;28;20194;-53
2024/03/29 01:27:53;;;;;;;1.60;1.07;;;;;;;2.94;96.79;96791.19;6289470;28;20251;-52
2024/03/29 01:30:58;;;;;;;0.20;0.20;;;;;;;2.57;99.46;96798.16;6290889;28;20205;-53
2024/03/29 01:34:02;;;;;;;1.70;0.30;;;;;;;2.58;99.12;96784.00;6296957;28;20690;-54
2024/03/29 01:37:03;;;;;;;2.27;0.33;;;;;;;2.68;98.94;96799.31;6277332;28;20719;-52
2024/03/29 01:40:05;;;;;;;2.20;0.37;;;;;;;2.37;100.00;96811.44;6291577;28;20213;-51
2024/03/29 01:43:08;;;;;;;0.50;0.20;;;;;;;2.16;100.00;96796.75;6294149;28;20194;-53
2024/03/29 01:46:10;;;;;;;0.30;0.20;;;;;;;2.35;100.00;96816.06;6281825;28;20212;-53
2024/03/29 01:49:11;;;;;;;1.23;0.30;;;;;;;2.27;100.00;96824.22;6294093;28;20187;-52
2024/03/29 01:52:16;;;;;;;0.40;0.40;;;;;;;2.13;100.00;96820.03;6287119;28;20198;-52
2024/03/29 01:55:18;;;;;;;0.57;0.30;;;;;;;2.04;100.00;96793.19;6282642;28;20204;-54
2024/03/29 01:58:21;;;;;;;0.37;0.37;;;;;;;2.09;100.00;96831.97;6296447;28;20188;-52
2024/03/29 02:01:24;;;;;;;1.53;0.30;;;;;;;1.86;100.00;96838.50;6296294;28;20200;-53
2024/03/29 02:04:26;;;;;;;0.23;0.23;;;;;;;1.85;100.00;96846.63;6276615;28;20241;-51
2024/03/29 02:07:28;;;;;;;1.20;0.57;;;;;;;1.85;100.00;96865.00;6272350;28;20692;-52
2024/03/29 02:10:30;;;;;;;1.33;0.40;;;;;;;1.86;100.00;96883.16;6299731;28;20196;-54
2024/03/29 02:13:31;;;;;;;2.60;0.50;;;;;;;1.84;100.00;96892.28;6296383;28;20204;-53
2024/03/29 02:16:33;;;;;;;2.10;0.57;;;;;;;1.73;100.00;96896.34;6294828;28;20577;-54
2024/03/29 02:19:34;;;;;;;0.47;0.40;;;;;;;1.68;100.00;96880.41;6281204;28;20237;-52
2024/03/29 02:22:41;;;;;;;0.83;0.47;;;;;;;2.12;100.00;96870.94;6302334;28;20210;-53
2024/03/29 02:25:42;;;;;;;1.33;0.57;;;;;;;2.25;100.00;96857.78;6297589;28;20204;-54
2024/03/29 02:28:43;;;;;;;2.60;1.60;;;;;;;2.12;100.00;96845.50;6292855;28;20189;-53
2024/03/29 02:31:44;;;;;;;1.50;1.40;;;;;;;1.72;100.00;96852.69;6304457;28;20183;-54
2024/03/29 02:34:45;;;;;;;1.53;0.87;;;;;;;1.98;100.00;96864.97;6302687;28;20201;-51
2024/03/29 02:37:46;;;;;;;1.37;0.53;;;;;;;1.57;100.00;96871.31;6299781;28;20195;-54
2024/03/29 02:40:47;;;;;;;2.43;0.70;;;;;;;1.76;100.00;96877.53;6290615;28;20749;-54
2024/03/29 02:43:48;;;;;;;0.50;0.50;;;;;;;1.70;100.00;96881.78;6303066;28;20203;-54
2024/03/29 02:46:49;;;;;;;1.93;0.50;;;;;;;1.63;100.00;96877.56;6298397;28;20733;-54
2024/03/29 02:49:50;;;;;;;0.40;0.40;;;;;;;1.43;100.00;96869.69;6294182;28;20186;-53
2024/03/29 02:52:51;;;;;;;0.40;0.40;;;;;;;1.32;100.00;96870.31;6295076;28;20186;-53
2024/03/29 02:55:52;;;;;;;0.30;0.27;;;;;;;1.44;100.00;96858.22;6275844;28;20186;-54
2024/03/29 02:58:55;;;;;;;0.60;0.20;;;;;;;1.35;100.00;96862.06;6293212;28;20604;-50
2024/03/29 03:01:56;;;;;;;0.20;0.20;;;;;;;1.10;100.00;96870.53;6287686;28;20234;-53
2024/03/29 03:04:57;;;;;;;2.73;0.20;;;;;;;1.24;100.00;96866.91;6298907;28;20198;-54
2024/03/29 03:11:18;;;;;;;0.30;0.30;;;;;;;0.96;100.00;96866.31;6292108;28;20187;-54
2024/03/29 03:14:19;;;;;;;0.47;0.40;;;;;;;1.22;100.00;96870.72;6299232;28;20205;-53
2024/03/29 03:17:20;;;;;;;1.07;0.50;;;;;;;1.45;100.00;96888.69;6293757;28;20191;-55
2024/03/29 03:20:22;;;;;;;1.13;0.80;;;;;;;1.25;100.00;96900.00;6296620;28;20222;-53
2024/03/29 03:23:24;;;;;;;0.70;0.60;;;;;;;1.53;100.00;96904.25;6302010;28;20235;-55
2024/03/29 03:26:25;;;;;;;1.20;0.67;;;;;;;1.25;100.00;96901.81;6306413;28;20222;-51
2024/03/29 03:29:26;;;;;;;0.50;0.50;;;;;;;1.27;100.00;96902.41;6299245;28;20194;-53
2024/03/29 03:32:27;;;;;;;0.87;0.87;;;;;;;1.46;100.00;96914.72;6296780;28;20208;-53
2024/03/29 03:35:28;;;;;;;1.03;0.80;;;;;;;1.43;100.00;96911.69;6297994;28;20268;-53
2024/03/29 03:38:31;;;;;;;8.17;3.80;;;;;;;1.00;100.00;96918.16;6288513;28;20190;-53
2024/03/29 03:41:32;;;;;;;3.70;2.40;;;;;;;0.98;100.00;96909.66;6291458;28;20210;-53
2024/03/29 03:44:33;;;;;;;4.03;2.73;;;;;;;1.21;100.00;96930.25;6291652;28;20191;-53
2024/03/29 03:47:34;;;;;;;4.60;2.60;;;;;;;0.75;100.00;96912.66;6292758;28;20567;-50
2024/03/29 03:50:35;;;;;;;2.70;1.67;;;;;;;1.08;100.00;96926.81;6290878;28;20210;-52
2024/03/29 03:53:36;;;;;;;3.03;1.10;;;;;;;1.31;100.00;96935.13;6294272;28;20205;-51
2024/03/29 03:56:37;;;;;;;2.43;0.60;;;;;;;1.16;100.00;96932.69;6290649;28;20681;-52
2024/03/29 03:59:38;;;;;;;1.13;0.50;;;;;;;0.95;100.00;96928.44;6295980;28;20188;-52
2024/03/29 04:02:39;;;;;;;0.30;0.30;;;;;;;0.95;100.00;96930.25;6297017;28;20243;-50
2024/03/29 04:05:40;;;;;;;0.87;0.47;;;;;;;1.02;100.00;96939.72;6290681;28;20197;-53
2024/03/29 04:08:44;;;;;;;0.40;0.40;;;;;;;0.87;100.00;96923.34;6293220;28;20193;-53
2024/03/29 04:11:45;;;;;;;0.50;0.50;;;;;;;1.25;100.00;96941.97;6291238;28;20198;-53
2024/03/29 04:14:46;;;;;;;2.73;0.50;;;;;;;0.98;100.00;96930.63;6294460;28;20182;-54
2024/03/29 04:17:47;;;;;;;2.10;0.43;;;;;;;0.92;100.00;96922.75;6290247;28;20195;-51
2024/03/29 04:20:58;;;;;;;1.87;0.40;;;;;;;0.74;100.00;96911.06;6291624;28;20221;-51
2024/03/29 04:23:59;;;;;;;0.80;0.40;;;;;;;0.78;100.00;96921.91;6296587;28;20845;-52
2024/03/29 04:27:00;;;;;;;0.40;0.40;;;;;;;0.84;100.00;96922.94;6273559;28;20673;-54
2024/03/29 04:30:02;;;;;;;0.47;0.47;;;;;;;0.87;100.00;96917.31;6291979;28;20201;-51
2024/03/29 04:33:03;;;;;;;0.30;0.30;;;;;;;1.21;100.00;96919.78;6300708;28;20196;-53
2024/03/29 04:36:05;;;;;;;0.77;0.60;;;;;;;1.23;100.00;96927.44;6293036;28;20189;-52
2024/03/29 04:39:06;;;;;;;0.60;0.40;;;;;;;0.91;100.00;96927.22;6291494;28;20198;-52
2024/03/29 04:42:07;;;;;;;0.50;0.47;;;;;;;0.81;100.00;96932.03;6278418;28;20201;-54
2024/03/29 04:45:09;;;;;;;0.50;0.40;;;;;;;1.09;100.00;96942.38;6303741;28;20182;-52
2024/03/29 04:48:11;;;;;;;1.03;0.50;;;;;;;0.95;100.00;96932.88;6298508;28;20189;-52
2024/03/29 04:51:13;;;;;;;1.77;0.50;;;;;;;1.23;100.00;96943.16;6292587;28;20297;-54
2024/03/29 04:54:17;;;;;;;3.13;0.70;;;;;;;1.17;100.00;96931.66;6293848;28;20190;-50
2024/03/29 04:57:18;;;;;;;7.77;4.27;;;;;;;0.78;100.00;96921.91;6281592;28;20705;-52
2024/03/29 05:00:19;;;;;;;7.27;3.43;;;;;;;0.98;100.00;96945.56;6300673;28;20197;-54
2024/03/29 05:03:22;;;;;;;9.53;4.00;;;;;;;1.07;100.00;96946.19;6294028;28;20194;-52
2024/03/29 05:06:23;;;;;;;7.27;3.03;;;;;;;1.27;100.00;96945.19;6293330;28;20186;-51
2024/03/29 05:09:25;;;;;;;1.83;1.40;;;;;;;1.03;100.00;96922.16;6297095;28;20199;-54
2024/03/29 05:12:26;;;;;;;3.23;1.50;;;;;;;1.30;100.00;96928.25;6307549;28;20405;-53
2024/03/29 05:15:27;;;;;;;2.03;0.80;;;;;;;1.26;100.00;96911.31;6301471;28;20191;-52
2024/03/29 05:18:28;;;;;;;2.33;1.20;;;;;;;1.33;100.00;96938.38;6295654;28;20229;-54
2024/03/29 05:21:30;;;;;;;2.23;1.40;;;;;;;1.48;100.00;96935.53;6293866;28;20649;-53
2024/03/29 05:24:31;;;;;;;2.47;1.17;;;;;;;1.24;100.00;96936.94;6300769;28;20194;-54
2024/03/29 05:27:32;;;;;;;1.10;0.90;;;;;;;1.31;100.00;96935.13;6303802;28;20194;-53
2024/03/29 05:30:35;;;;;;;2.43;0.60;;;;;;;1.63;100.00;96936.13;6293696;28;20654;-53
2024/03/29 05:33:37;;;;;;;1.07;0.70;;;;;;;1.52;100.00;96934.91;6295888;28;20194;-53
2024/03/29 05:36:38;;;;;;;1.37;0.80;;;;;;;1.59;100.00;96929.66;6312469;28;20201;-51
2024/03/29 05:39:39;;;;;;;1.10;0.63;;;;;;;1.51;100.00;96929.88;6300388;28;20767;-53
2024/03/29 05:42:41;;;;;;;0.73;0.57;;;;;;;1.83;100.00;96922.19;6300884;28;20205;-52
2024/03/29 05:45:42;;;;;;;1.33;0.40;;;;;;;1.60;100.00;96928.66;6293750;28;20277;-53
2024/03/29 05:48:43;;;;;;;1.37;0.40;;;;;;;1.63;100.00;96927.47;6294824;28;20606;-52
2024/03/29 05:51:44;;;;;;;1.23;0.57;;;;;;;1.57;100.00;96923.00;6304159;28;20584;-50
2024/03/29 05:54:46;;;;;;;4.33;2.03;;;;;;;1.55;100.00;96926.63;6298548;28;20186;-53
2024/03/29 05:57:48;;;;;;;1.50;0.60;;;;;;;1.81;100.00;96936.28;6304243;28;20440;-51
2024/03/29 06:00:49;;;;;;;0.77;0.40;;;;;;;1.90;100.00;96922.97;6312972;28;20216;-52
2024/03/29 06:03:54;;;;;;;0.53;0.50;;;;;;;1.90;100.00;96929.00;6293865;28;20269;-53
2024/03/29 06:06:55;;;;;;;1.20;0.30;;;;;;;2.21;100.00;96928.31;6293286;28;20196;-54
2024/03/29 06:09:57;;;;;;;1.10;0.40;;;;;;;2.45;100.00;96920.75;6293989;28;20187;-50
2024/03/29 06:13:06;;;;;;;0.37;0.37;;;;;;;2.36;100.00;96925.44;6290476;28;20205;-52
2024/03/29 06:19:27;;;;;;;2.83;0.30;;;;;;;2.45;100.00;96926.00;6299390;28;20269;-53
2024/03/29 06:22:30;;;;;;;0.30;0.20;;;;;;;2.61;100.00;96916.84;6296969;28;20281;-54
2024/03/29 06:25:31;;;;;;;1.30;0.30;;;;;;;2.74;100.00;96908.88;6292954;28;20185;-56
2024/03/29 06:28:32;;;;;;;2.37;0.40;;;;;;;2.81;100.00;96912.31;6292971;28;20192;-54
2024/03/29 06:31:33;;;;;;;1.50;0.37;;;;;;;2.75;100.00;96903.41;6292526;28;20179;-53
2024/03/29 06:34:34;;;;;;;1.13;0.40;;;;;;;2.73;100.00;96902.81;6295807;28;20197;-51
2024/03/29 06:37:35;;;;;;;0.33;0.30;;;;;;;3.01;100.00;96891.13;6293643;28;20196;-55
2024/03/29 06:40:36;;;;;;;1.00;0.40;;;;;;;3.11;100.00;96880.94;6291200;28;20231;-51
2024/03/29 06:43:41;;;;;;;1.13;0.30;;;;;;;3.38;100.00;96878.88;6292552;28;20193;-55
2024/03/29 06:46:42;;;;;;;1.23;0.40;;;;;;;3.68;100.00;96876.38;6296298;28;20548;-56
2024/03/29 06:49:43;;;;;;;1.07;0.70;;;;;;;4.10;100.00;96879.19;6294285;28;20194;-60
2024/03/29 06:52:45;;;;;;;0.40;0.40;;;;;;;4.42;99.65;96876.38;6292480;28;20224;-57
2024/03/29 06:55:46;;;;;;;0.83;0.30;;;;;;;4.96;93.11;96870.16;6292407;28;20203;-56
2024/03/29 06:58:47;;;;;;;1.73;0.30;;;;;;;6.24;72.77;96868.59;6299919;28;20194;-56
2024/03/29 07:01:54;;;;;;;1.70;0.40;;;;;;;7.00;67.99;96849.91;6294319;28;20201;-56
2024/03/29 07:04:56;;;;;;;0.30;0.30;;;;;;;7.83;59.96;96838.44;6298323;28;20199;-56
2024/03/29 07:07:59;;;;;;;1.97;0.40;;;;;;;8.39;58.48;96828.53;6292129;28;20208;-54
2024/03/29 07:11:02;;;;;;;0.50;0.33;;;;;;;8.62;60.86;96814.19;6303335;28;20187;-56
2024/03/29 07:14:04;;;;;;;0.40;0.30;;;;;;;9.12;60.91;96821.03;6297151;28;20190;-56
2024/03/29 07:17:06;;;;;;;1.00;0.40;;;;;;;9.52;63.17;96833.03;6302572;28;20201;-54
2024/03/29 07:20:08;;;;;;;1.73;0.50;;;;;;;9.86;59.45;96828.19;6310041;28;20234;-54
2024/03/29 07:23:11;;;;;;;2.83;0.60;;;;;;;9.94;63.14;96827.69;6297242;28;20271;-53
2024/03/29 07:26:12;;;;;;;1.27;0.20;;;;;;;10.07;59.44;96808.59;6295166;28;20240;-55
2024/03/29 07:29:13;;;;;;;1.43;0.50;;;;;;;10.30;59.58;96803.94;6292643;28;20248;-53
2024/03/29 07:32:15;;;;;;;2.50;0.50;;;;;;;10.43;58.96;96791.97;6280682;28;20186;-55
2024/03/29 07:35:18;;;;;;;1.33;0.40;;;;;;;10.96;56.88;96788.06;6303541;28;20677;-55
2024/03/29 07:38:20;;;;;;;1.33;0.73;;;;;;;11.18;57.94;96787.81;6289282;28;20200;-55
2024/03/29 07:41:21;;;;;;;3.13;0.60;;;;;;;11.43;57.37;96764.84;6289722;28;20215;-54
2024/03/29 07:44:23;;;;;;;1.87;0.83;;;;;;;11.31;60.48;96773.91;6292677;28;20243;-54
2024/03/29 07:47:25;;;;;;;1.90;1.17;;;;;;;11.55;59.59;96773.34;6295769;28;20185;-55
2024/03/29 07:50:26;;;;;;;3.90;0.90;;;;;;;11.96;58.91;96770.59;6292543;28;20247;-57
2024/03/29 07:53:27;;;;;;;3.30;0.80;;;;;;;12.26;60.33;96748.31;6294594;28;20242;-55
2024/03/29 07:56:29;;;;;;;1.80;0.90;;;;;;;12.67;56.11;96772.13;6281543;28;20185;-54
2024/03/29 07:59:30;;;;;;;2.30;0.87;;;;;;;12.69;58.38;96759.28;6292513;28;20194;-55
2024/03/29 08:02:32;;;;;;;0.80;0.47;;;;;;;12.84;57.35;96769.88;6294408;28;20846;-57
2024/03/29 08:05:34;;;;;;;1.53;0.67;;;;;;;12.93;57.14;96778.09;6297766;28;20185;-56
2024/03/29 08:08:35;;;;;;;1.90;0.90;;;;;;;12.99;57.92;96772.41;6292672;28;20521;-54
2024/03/29 08:11:36;;;;;;;1.60;0.70;;;;;;;13.12;59.65;96758.41;6286963;28;20194;-54
2024/03/29 08:14:37;;;;;;;3.53;0.67;;;;;;;13.35;57.43;96754.25;6299647;28;20194;-56
2024/03/29 08:17:38;;;;;;;2.33;0.90;;;;;;;13.65;57.76;96750.47;6297672;28;20654;-57
2024/03/29 08:20:40;;;;;;;2.83;0.70;;;;;;;13.85;55.52;96745.97;6291038;28;20851;-56
2024/03/29 08:23:43;;;;;;;3.87;0.80;;;;;;;14.10;56.83;96748.34;6294427;28;20194;-56
2024/03/29 08:26:45;;;;;;;1.63;0.80;;;;;;;14.01;56.15;96741.22;6288919;28;20198;-55
2024/03/29 08:29:46;;;;;;;5.03;0.90;;;;;;;14.11;57.17;96733.06;6294766;28;20190;-56
2024/03/29 08:32:47;;;;;;;2.50;0.60;;;;;;;14.46;56.74;96731.78;6293075;28;20194;-54
2024/03/29 08:35:49;;;;;;;1.67;0.80;;;;;;;14.92;53.03;96734.59;6290764;28;20328;-55
2024/03/29 08:38:50;;;;;;;1.73;0.90;;;;;;;14.97;51.59;96739.06;6303839;28;20615;-55
2024/03/29 08:41:51;;;;;;;2.93;0.90;;;;;;;15.13;55.04;96734.28;6292112;28;20198;-54
2024/03/29 08:44:53;;;;;;;1.47;0.97;;;;;;;15.38;51.88;96744.56;6300670;28;20198;-54
2024/03/29 08:47:54;;;;;;;3.57;0.90;;;;;;;15.56;51.31;96734.03;6277759;28;20605;-56
2024/03/29 08:50:55;;;;;;;2.63;0.90;;;;;;;15.62;52.61;96727.50;6299850;28;20239;-55
2024/03/29 08:53:57;;;;;;;3.33;0.90;;;;;;;15.71;52.81;96718.50;6306433;28;20725;-54
2024/03/29 08:57:01;;;;;;;4.50;0.80;;;;;;;15.74;51.85;96717.88;6294782;28;20215;-56
2024/03/29 09:00:03;;;;;;;3.07;1.10;;;;;;;15.84;52.11;96708.84;6296592;28;20218;-54
2024/03/29 09:03:04;;;;;;;2.67;0.80;;;;;;;15.86;51.96;96716.56;6294508;28;20198;-55
2024/03/29 09:06:05;;;;;;;1.53;0.77;;;;;;;16.10;51.18;96705.63;6304685;28;20205;-55
2024/03/29 09:09:07;;;;;;;2.03;1.00;;;;;;;15.91;50.30;96692.31;6297786;28;20202;-55
2024/03/29 09:12:09;;;;;;;2.27;0.80;;;;;;;16.26;50.12;96704.22;6295241;28;20700;-56
2024/03/29 09:15:16;;;;;;;2.47;0.93;;;;;;;16.22;51.53;96679.03;6295022;28;20191;-54
2024/03/29 09:18:23;;;;;;;1.30;0.70;;;;;;;16.39;49.96;96684.56;6294702;28;20226;-57
2024/03/29 09:21:24;;;;;;;3.67;0.90;;;;;;;16.39;49.01;96665.72;6305247;28;20248;-57
2024/03/29 09:24:27;;;;;;;4.93;1.00;;;;;;;16.65;52.29;96667.81;6283997;28;20201;-56
2024/03/29 09:27:28;;;;;;;1.40;0.63;;;;;;;16.80;48.14;96659.44;6291223;28;20191;-55
2024/03/29 09:30:29;;;;;;;2.00;0.83;;;;;;;16.99;47.85;96649.28;6294174;28;20194;-55
2024/03/29 09:33:30;;;;;;;2.10;0.87;;;;;;;17.17;44.91;96655.53;6305455;28;20217;-56
2024/03/29 09:36:31;;;;;;;1.87;0.73;;;;;;;17.16;46.96;96662.03;6301785;28;20232;-54
2024/03/29 09:39:33;;;;;;;4.13;1.00;;;;;;;17.20;44.67;96671.06;6297055;28;20190;-56
2024/03/29 09:42:38;;;;;;;4.73;0.90;;;;;;;17.16;43.17;96662.03;6297987;28;20216;-55
2024/03/29 09:45:39;;;;;;;3.43;0.90;;;;;;;16.99;47.10;96656.53;6295748;28;20190;-55
2024/03/29 09:48:42;;;;;;;5.10;1.03;;;;;;;16.95;45.77;96658.28;6295137;28;20194;-55
2024/03/29 09:51:44;;;;;;;2.00;0.80;;;;;;;17.13;46.10;96661.84;6297297;28;20186;-54
2024/03/29 09:54:46;;;;;;;1.30;0.80;;;;;;;17.11;43.15;96662.16;6293620;28;20240;-55
2024/03/29 09:57:47;;;;;;;1.87;0.87;;;;;;;17.20;42.27;96659.50;6308300;28;20206;-55
2024/03/29 10:00:48;;;;;;;3.33;0.63;;;;;;;17.03;45.94;96652.13;6297866;28;20210;-57
2024/03/29 10:03:51;;;;;;;1.80;0.77;;;;;;;17.05;42.97;96649.16;6298159;28;20285;-56
2024/03/29 10:06:53;;;;;;;4.80;0.80;;;;;;;17.31;43.12;96643.88;6293887;28;20218;-55
2024/03/29 10:09:55;;;;;;;3.70;0.80;;;;;;;17.40;42.53;96642.81;6305915;28;20190;-56
2024/03/29 10:12:56;;;;;;;0.97;0.57;;;;;;;17.68;41.74;96626.41;6307366;28;20707;-54
2024/03/29 10:15:57;;;;;;;1.73;0.50;;;;;;;18.10;39.96;96632.22;6297342;28;20198;-55
2024/03/29 10:18:59;;;;;;;3.80;1.00;;;;;;;18.18;39.48;96620.69;6283426;28;20253;-55
2024/03/29 10:22:07;;;;;;;2.10;0.50;;;;;;;18.26;40.96;96625.25;6293273;28;20678;-56
2024/03/29 10:25:08;;;;;;;1.90;0.70;;;;;;;18.46;40.14;96596.84;6308240;28;20757;-55
2024/03/29 10:28:09;;;;;;;2.67;0.90;;;;;;;18.76;38.44;96603.97;6290050;28;20194;-55
2024/03/29 10:31:12;;;;;;;2.40;0.70;;;;;;;18.95;40.22;96594.72;6295068;28;20641;-55
2024/03/29 10:34:13;;;;;;;3.10;1.07;;;;;;;18.87;39.24;96598.25;6293170;28;20194;-56
2024/03/29 10:37:16;;;;;;;2.37;1.10;;;;;;;18.75;40.48;96599.69;6292669;28;20829;-56
2024/03/29 10:40:18;;;;;;;2.77;0.80;;;;;;;18.79;38.54;96605.25;6290658;28;20205;-54
2024/03/29 10:43:20;;;;;;;5.33;0.90;;;;;;;18.96;37.99;96599.00;6287798;28;20202;-54
2024/03/29 10:46:22;;;;;;;3.93;0.80;;;;;;;19.11;37.62;96597.69;6292909;28;20190;-56
2024/03/29 10:49:24;;;;;;;2.17;0.77;;;;;;;19.06;38.59;96585.16;6296155;28;20194;-54
2024/03/29 10:52:26;;;;;;;3.07;1.27;;;;;;;19.16;38.65;96584.81;6299163;28;20244;-55
2024/03/29 10:55:32;;;;;;;1.70;0.40;;;;;;;19.24;37.43;96561.59;6300832;28;20198;-56
2024/03/29 10:58:45;;;;;;;2.83;0.53;;;;;;;19.38;37.85;96577.56;6292703;28;20194;-55
2024/03/29 11:01:54;;;;;;;2.50;0.70;;;;;;;19.49;34.99;96573.38;6298700;28;20221;-56
2024/03/29 11:05:01;;;;;;;1.83;0.50;;;;;;;19.56;35.77;96574.47;6288004;28;20222;-56
2024/03/29 11:08:03;;;;;;;2.00;0.70;;;;;;;19.51;35.07;96573.88;6281381;28;20240;-56
2024/03/29 11:11:06;;;;;;;1.93;0.67;;;;;;;19.80;34.27;96589.28;6293337;28;20190;-54
2024/03/29 11:14:13;;;;;;;1.47;0.70;;;;;;;19.94;32.50;96581.69;6303842;28;20574;-56
2024/03/29 11:17:15;;;;;;;1.50;0.70;;;;;;;19.96;33.20;96567.88;6306414;28;20190;-55
2024/03/29 11:20:24;;;;;;;1.27;0.53;;;;;;;20.01;33.50;96568.47;6292069;28;20714;-56
2024/03/29 11:23:26;;;;;;;2.80;0.60;;;;;;;19.87;33.78;96559.81;6279933;28;20264;-54
2024/03/29 11:26:29;;;;;;;1.30;0.47;;;;;;;19.89;34.19;96562.19;6294946;28;20183;-52
2024/03/29 11:29:34;;;;;;;1.37;0.90;;;;;;;19.71;35.05;96566.94;6295619;28;20186;-55
2024/03/29 11:32:38;;;;;;;3.30;0.73;;;;;;;19.62;34.53;96560.78;6296000;28;20184;-53
2024/03/29 11:35:42;;;;;;;2.37;0.83;;;;;;;19.54;33.02;96555.06;6291552;28;20191;-54
2024/03/29 11:38:48;;;;;;;2.60;0.90;;;;;;;19.18;34.67;96547.50;6292994;28;20182;-56
2024/03/29 11:41:50;;;;;;;2.07;0.60;;;;;;;19.50;34.94;96546.03;6289199;28;20248;-54
2024/03/29 11:44:51;;;;;;;1.20;0.60;;;;;;;19.91;33.68;96536.44;6302073;28;20193;-54
2024/03/29 11:47:54;;;;;;;1.47;0.50;;;;;;;20.03;33.77;96533.78;6300466;28;20212;-54
2024/03/29 11:50:55;;;;;;;3.07;0.60;;;;;;;20.05;32.83;96530.75;6292588;28;20191;-54
2024/03/29 11:53:57;;;;;;;3.27;0.70;;;;;;;20.02;33.65;96520.59;6309616;28;20580;-57
2024/03/29 11:56:58;;;;;;;2.60;0.70;;;;;;;20.20;33.60;96511.22;6305354;28;20194;-55
2024/03/29 11:59:59;;;;;;;2.67;0.70;;;;;;;20.54;33.37;96518.22;6292717;28;20680;-55
2024/03/29 12:03:00;;;;;;;2.30;0.77;;;;;;;20.79;31.81;96512.88;6274247;28;20685;-56
2024/03/29 12:06:01;;;;;;;1.20;0.63;;;;;;;20.61;30.18;96502.22;6278007;28;20231;-56
2024/03/29 12:09:03;;;;;;;2.60;0.70;;;;;;;21.05;30.54;96491.66;6303162;28;20198;-54
2024/03/29 12:12:09;;;;;;;1.63;0.67;;;;;;;21.22;30.38;96479.81;6292998;28;20201;-55
2024/03/29 12:15:12;;;;;;;1.03;0.70;;;;;;;21.46;29.62;96489.06;6295555;28;20187;-56
2024/03/29 12:18:16;;;;;;;1.40;0.60;;;;;;;21.18;30.08;96484.34;6289999;28;20269;-55
2024/03/29 12:21:17;;;;;;;0.90;0.67;;;;;;;21.21;32.78;96488.28;6291563;28;20289;-55
2024/03/29 12:24:18;;;;;;;2.10;0.73;;;;;;;21.36;31.01;96491.09;6302546;28;20220;-53
2024/03/29 12:27:22;;;;;;;2.90;0.87;;;;;;;21.38;29.60;96479.94;6296818;28;20220;-55
2024/03/29 12:30:23;;;;;;;0.67;0.60;;;;;;;21.35;30.18;96472.50;6292169;28;20709;-56
2024/03/29 12:33:24;;;;;;;1.43;0.60;;;;;;;21.46;31.14;96470.88;6293526;28;20267;-53
2024/03/29 12:36:26;;;;;;;2.90;0.70;;;;;;;21.51;30.64;96462.50;6291428;28;20194;-56
2024/03/29 12:39:33;;;;;;;1.97;0.60;;;;;;;21.51;31.23;96462.50;6294324;28;20212;-55
2024/03/29 12:42:34;;;;;;;2.13;0.63;;;;;;;21.32;31.95;96465.03;6291167;28;20205;-55
2024/03/29 12:45:38;;;;;;;2.43;0.73;;;;;;;21.38;31.72;96469.91;6292780;28;20186;-55
2024/03/29 12:48:39;;;;;;;0.60;0.43;;;;;;;21.52;31.23;96457.88;6287322;28;20198;-54
2024/03/29 12:51:40;;;;;;;1.37;0.60;;;;;;;21.16;31.21;96464.13;6293969;28;20212;-53
2024/03/29 12:54:42;;;;;;;2.13;0.60;;;;;;;20.96;32.05;96430.63;6282000;28;20202;-54
2024/03/29 12:57:44;;;;;;;1.53;0.70;;;;;;;21.12;34.02;96453.97;6291322;28;20195;-56
2024/03/29 13:00:45;;;;;;;1.53;0.80;;;;;;;20.94;35.31;96449.94;6309094;28;20297;-56
2024/03/29 13:03:46;;;;;;;2.27;0.77;;;;;;;20.98;35.03;96448.09;6297654;28;20281;-56
2024/03/29 13:06:47;;;;;;;2.70;0.73;;;;;;;21.08;33.70;96454.97;6296606;28;20198;-56
2024/03/29 13:09:48;;;;;;;2.07;0.50;;;;;;;21.21;33.10;96447.66;6291843;28;20224;-54
2024/03/29 13:12:50;;;;;;;1.77;0.50;;;;;;;21.36;33.18;96436.91;6298838;28;20221;-55
2024/03/29 13:15:51;;;;;;;1.10;0.60;;;;;;;21.55;33.21;96440.94;6299641;28;20193;-57
2024/03/29 13:18:52;;;;;;;2.37;0.57;;;;;;;21.54;31.44;96442.09;6298208;28;20272;-54
2024/03/29 13:21:53;;;;;;;1.90;0.50;;;;;;;21.51;32.62;96431.94;6291343;28;20202;-54
2024/03/29 13:24:54;;;;;;;2.57;0.90;;;;;;;21.61;30.06;96420.59;6289822;28;20277;-55
2024/03/29 13:27:56;;;;;;;0.97;0.50;;;;;;;21.52;30.16;96425.38;6300281;28;20198;-54
2024/03/29 13:30:57;;;;;;;0.87;0.50;;;;;;;21.42;29.22;96428.56;6300553;28;20283;-55
2024/03/29 13:34:11;;;;;;;1.33;0.40;;;;;;;21.33;30.40;96424.06;6298461;28;20296;-56
2024/03/29 13:37:13;;;;;;;2.60;0.63;;;;;;;21.38;31.26;96413.00;6289458;28;20198;-55
2024/03/29 13:40:15;;;;;;;1.23;0.67;;;;;;;21.48;31.65;96408.25;6296493;28;20206;-55
2024/03/29 13:43:16;;;;;;;1.53;0.70;;;;;;;21.58;30.99;96403.13;6304756;28;20243;-56
2024/03/29 13:46:17;;;;;;;1.17;0.50;;;;;;;21.77;30.08;96413.34;6301480;28;20197;-55
2024/03/29 13:49:21;;;;;;;1.87;0.53;;;;;;;21.80;28.48;96406.41;6291312;28;20186;-55
2024/03/29 13:52:22;;;;;;;2.87;0.60;;;;;;;21.79;29.05;96412.97;6291252;28;20202;-55
2024/03/29 13:55:25;;;;;;;2.53;0.80;;;;;;;21.77;30.84;96413.34;6295558;28;20277;-55
2024/03/29 13:58:27;;;;;;;1.50;0.63;;;;;;;21.81;30.82;96407.97;6297077;28;20203;-55
2024/03/29 14:01:28;;;;;;;1.67;0.50;;;;;;;22.04;28.40;96409.00;6297875;28;20202;-55
2024/03/29 14:04:30;;;;;;;0.97;0.40;;;;;;;22.01;27.29;96404.28;6299142;28;20197;-55
2024/03/29 14:07:32;;;;;;;1.27;0.63;;;;;;;21.97;29.41;96397.19;6307284;28;20411;-55
2024/03/29 14:10:35;;;;;;;1.80;0.40;;;;;;;21.88;29.14;96398.13;6297974;28;20182;-55
2024/03/29 14:13:36;;;;;;;1.07;0.40;;;;;;;21.93;28.34;96399.03;6289118;28;20194;-56
2024/03/29 14:16:38;;;;;;;1.27;0.40;;;;;;;21.90;31.66;96414.06;6291714;28;20188;-56
2024/03/29 14:19:39;;;;;;;0.83;0.50;;;;;;;21.73;30.60;96408.94;6288815;28;20226;-56
2024/03/29 14:22:41;;;;;;;0.67;0.50;;;;;;;21.65;30.94;96410.66;6290855;28;20491;-55